OPKC Airport Information

Runway Information
Runway 07L Length 10500 ft width 151 ft
Elevation 77 ft Threshold 0 ft Heading 75
Runway 25R Length 10500 ft Width 151 ft
Elevation 100 ft Threshold 0 ft Heading 255
Runway 07R Length 11155 ft width 151 ft
Elevation 71 ft Threshold 0 ft Heading 74
Runway 25L Length 11155 ft Width 151 ft
Elevation 89 ft Threshold 0 ft Heading 254
Airport Frequencies
Type APP Name KARACHI AP Frequency 125.5 MHZ
Type ATIS Name ATIS Frequency 126.7 MHZ
Type GND Name KARACHI GN Frequency 121.6 MHZ
Type TWR Name KARACHI TW Frequency 118.3 MHZ
Airport Navaids
Type VOR-DME Name Karachi Frequency 112100 KHZ
Type NDB Name Karachi Frequency 271 KHZ
Airport Weather Information & NOTAM
ADDS - METARS form results

(1012 UTC 22 February 2019)
Data provider http://aviationweather.gov/metar/data/
 
METAR text: OPKC 220955Z 36003KT CAVOK 27/03 Q1017 NOSIG
Conditions at: OPKC (KARACHI INTL ARP, PK) observed 0955 UTC 22 February 2019
Temperature: 27.0°C (81°F)
Dewpoint: 3.0°C (37°F) [RH = 21%]
Pressure (altimeter): 30.03 inches Hg (1017.0 mb)
Winds: from the N (360 degrees) at 3 MPH (3 knots; 1.5 m/s)
Visibility: 6 or more miles (10+ km)
Ceiling: ceiling and visibility are OK
Clouds: unknown
Weather: no significant weather observed at this time

METAR text: OPKC 220925Z 05003KT CAVOK 26/05 Q1018 NOSIG
Conditions at: OPKC (KARACHI INTL ARP, PK) observed 0925 UTC 22 February 2019
Temperature: 26.0°C (79°F)
Dewpoint: 5.0°C (41°F) [RH = 26%]
Pressure (altimeter): 30.06 inches Hg (1018.0 mb)
Winds: from the NE (50 degrees) at 3 MPH (3 knots; 1.5 m/s)
Visibility: 6 or more miles (10+ km)
Ceiling: ceiling and visibility are OK
Clouds: unknown
Weather: no significant weather observed at this time

Forecast for: OPKC (KARACHI INTL ARP, PK)
Text: TAF OPKC 220930Z 2212/2221 29010KT 6000 FEW030 SCT100
Forecast period: 1200 to 1900 UTC 22 February 2019
Forecast type: FROM: standard forecast or significant change
Winds: from the WNW (290 degrees) at 12 MPH (10 knots; 5.1 m/s)
Visibility: 4 miles (6 km)
Ceiling: at least 12,000 feet AGL
Clouds: few clouds at 3000 feet AGL
scattered clouds at 10000 feet AGL
Weather: no significant weather forecast for this period
Text: BECMG 2219/2221 04007KT 5000 HZ FEW020 SCT100
Forecast period: 1900 to 2100 UTC 22 February 2019
Forecast type: BECOMING: Conditions expected to become as follows by 2100 UTC 22 February 2019
Winds: from the NE (40 degrees) at 8 MPH (7 knots; 3.6 m/s)
Visibility: 3 miles (5 km)
Ceiling: at least 12,000 feet AGL
Clouds: few clouds at 2000 feet AGL
scattered clouds at 10000 feet AGL
Weather: HZ  (haze)